createdAt,value
2019-03-24T00:01:22.155Z,102851.88
2019-03-24T00:03:50.400Z,102849.34
2019-03-24T00:06:18.681Z,102862.86
2019-03-24T00:08:46.948Z,102862.05
2019-03-24T00:11:15.303Z,102862.05
2019-03-24T00:13:43.730Z,102859.36
2019-03-24T00:16:11.975Z,102856.37
2019-03-24T00:18:40.289Z,102856.37
2019-03-24T00:21:08.608Z,102851.64
2019-03-24T00:23:37.050Z,102853.30
2019-03-24T00:26:05.326Z,102851.22
2019-03-24T00:28:34.139Z,102841.95
2019-03-24T00:31:02.457Z,102840.23
2019-03-24T00:33:32.368Z,102845.61
2019-03-24T00:36:00.606Z,102834.25
2019-03-24T00:38:28.993Z,102834.25
2019-03-24T00:40:57.371Z,102834.86
2019-03-24T00:43:28.638Z,102825.98
2019-03-24T00:45:57.016Z,102826.80
2019-03-24T00:48:25.301Z,102824.64
2019-03-24T00:50:53.581Z,102815.35
2019-03-24T00:53:21.979Z,102815.35
2019-03-24T00:55:50.545Z,102819.04
2019-03-24T00:58:18.791Z,102809.32
2019-03-24T01:00:49.137Z,102799.91
2019-03-24T01:03:17.387Z,102784.36
2019-03-24T01:05:45.741Z,102784.02
2019-03-24T01:08:14.204Z,102784.02
2019-03-24T01:10:42.501Z,102789.23
2019-03-24T01:13:12.510Z,102789.23
2019-03-24T01:15:47.648Z,102778.98
2019-03-24T01:18:11.183Z,102778.98
2019-03-24T01:20:39.459Z,102782.52
2019-03-24T01:23:07.774Z,102783.25
2019-03-24T01:25:36.118Z,102783.25
2019-03-24T01:30:26.763Z,102775.17
2019-03-24T01:32:55.050Z,102775.17
2019-03-24T01:35:23.336Z,102773.91
2019-03-24T01:37:51.662Z,102780.28
2019-03-24T01:40:20.002Z,102780.28
2019-03-24T01:42:48.248Z,102775.63
2019-03-24T01:45:16.565Z,102776.98
2019-03-24T01:47:44.870Z,102776.98
2019-03-24T01:50:13.179Z,102776.59
2019-03-24T01:52:41.628Z,102775.25
2019-03-24T01:55:09.912Z,102774.98
2019-03-24T01:57:38.157Z,102777.86
2019-03-24T02:00:07.533Z,102772.94
2019-03-24T02:02:35.798Z,102767.80
2019-03-24T02:05:08.296Z,102761.53
2019-03-24T02:07:36.621Z,102759.96
2019-03-24T02:10:07.058Z,102756.30
2019-03-24T02:12:35.463Z,102752.86
2019-03-24T02:15:05.561Z,102748.44
2019-03-24T02:17:33.863Z,102755.47
2019-03-24T02:20:02.311Z,102752.39
2019-03-24T02:22:30.635Z,102752.39
2019-03-24T02:24:58.936Z,102744.40
2019-03-24T02:27:27.404Z,102749.13
2019-03-24T02:29:55.714Z,102750.97
2019-03-24T02:32:23.966Z,102742.78
2019-03-24T02:34:52.336Z,102740.67
2019-03-24T02:37:20.590Z,102727.62
2019-03-24T02:39:49.090Z,102727.62
2019-03-24T02:42:17.488Z,102724.40
2019-03-24T02:44:45.738Z,102722.98
2019-03-24T02:47:14.034Z,102727.70
2019-03-24T02:49:42.313Z,102732.23
2019-03-24T02:52:10.551Z,102730.39
2019-03-24T02:54:38.827Z,102722.78
2019-03-24T02:57:07.115Z,102724.40
2019-03-24T02:59:35.547Z,102715.53
2019-03-24T03:02:03.846Z,102715.53
2019-03-24T03:04:32.116Z,102720.28
2019-03-24T03:07:00.514Z,102711.34
2019-03-24T03:09:28.818Z,102700.66
2019-03-24T03:11:57.094Z,102707.31
2019-03-24T03:14:25.459Z,102707.31
2019-03-24T03:16:53.877Z,102702.47
2019-03-24T03:19:22.266Z,102710.53
2019-03-24T03:21:50.761Z,102711.03
2019-03-24T03:24:19.011Z,102701.86
2019-03-24T03:26:47.310Z,102702.09
2019-03-24T03:29:15.688Z,102699.78
2019-03-24T03:31:43.949Z,102705.56
2019-03-24T03:34:12.229Z,102702.00
2019-03-24T03:36:40.566Z,102702.00
2019-03-24T03:39:08.822Z,102692.29
2019-03-24T03:41:37.088Z,102694.89
2019-03-24T03:44:05.357Z,102685.06
2019-03-24T03:46:33.937Z,102684.36
2019-03-24T03:49:02.243Z,102690.27
2019-03-24T03:51:30.462Z,102695.55
2019-03-24T03:53:59.191Z,102701.23
2019-03-24T03:56:27.812Z,102702.04
2019-03-24T03:58:56.064Z,102698.02
2019-03-24T04:01:24.452Z,102691.22
2019-03-24T04:03:52.792Z,102692.88
2019-03-24T04:06:21.024Z,102684.81
2019-03-24T04:08:49.452Z,102690.19
2019-03-24T04:11:19.130Z,102685.35
2019-03-24T04:13:47.364Z,102680.70
2019-03-24T04:16:15.644Z,102687.87
2019-03-24T04:18:43.916Z,102684.34
2019-03-24T04:21:12.275Z,102684.34
2019-03-24T04:23:40.524Z,102683.31
2019-03-24T04:26:09.065Z,102687.03
2019-03-24T04:28:37.361Z,102674.64
2019-03-24T04:31:05.595Z,102674.64
2019-03-24T04:33:33.963Z,102674.28
2019-03-24T04:36:02.317Z,102674.28
2019-03-24T04:38:30.567Z,102674.78
2019-03-24T04:40:59.057Z,102674.78
2019-03-24T04:43:27.311Z,102675.31
2019-03-24T04:45:55.669Z,102675.85
2019-03-24T04:48:23.939Z,102675.85
2019-03-24T04:50:52.226Z,102678.81
2019-03-24T04:53:20.850Z,102678.81
2019-03-24T04:55:50.760Z,102665.62
2019-03-24T04:58:19.007Z,102665.62
2019-03-24T05:00:47.281Z,102666.87
2019-03-24T05:03:15.576Z,102670.67
2019-03-24T05:05:43.958Z,102668.84
2019-03-24T05:08:12.787Z,102662.27
2019-03-24T05:10:41.143Z,102663.77
2019-03-24T05:13:09.437Z,102663.77
2019-03-24T05:15:37.785Z,102657.56
2019-03-24T05:18:06.093Z,102651.39
2019-03-24T05:20:34.469Z,102650.27
2019-03-24T05:36:12.838Z,102646.95
2019-03-24T05:38:41.221Z,102649.78
2019-03-24T05:41:09.516Z,102643.74
2019-03-24T05:43:39.250Z,102654.17
2019-03-24T05:46:07.642Z,102662.67
2019-03-24T05:48:35.882Z,102662.58
2019-03-24T05:51:05.008Z,102668.14
2019-03-24T05:53:33.311Z,102669.39
2019-03-24T05:56:01.685Z,102643.91
2019-03-24T05:58:30.003Z,102629.30
2019-03-24T06:00:58.312Z,102634.08
2019-03-24T06:03:26.581Z,102622.23
2019-03-24T06:05:54.878Z,102625.05
2019-03-24T06:08:23.258Z,102623.70
2019-03-24T06:10:51.519Z,102624.97
2019-03-24T06:13:19.817Z,102622.47
2019-03-24T06:15:48.077Z,102617.87
2019-03-24T06:18:16.320Z,102607.86
2019-03-24T06:20:44.647Z,102605.94
2019-03-24T06:23:12.921Z,102611.88
2019-03-24T06:25:41.205Z,102598.48
2019-03-24T06:28:09.519Z,102589.40
2019-03-24T06:30:37.848Z,102585.98
2019-03-24T06:33:06.058Z,102588.14
2019-03-24T06:35:34.306Z,102592.25
2019-03-24T06:38:02.714Z,102597.08
2019-03-24T06:40:31.115Z,102603.45
2019-03-24T06:43:00.378Z,102603.81
2019-03-24T06:45:29.095Z,102612.56
2019-03-24T06:47:58.390Z,102619.73
2019-03-24T06:50:26.765Z,102627.20
2019-03-24T06:52:55.018Z,102628.25
2019-03-24T06:55:23.311Z,102637.58
2019-03-24T06:57:51.552Z,102643.92
2019-03-24T07:00:19.807Z,102646.62
2019-03-24T07:02:48.222Z,102651.73
2019-03-24T07:05:16.609Z,102644.72
2019-03-24T07:07:44.954Z,102637.55
2019-03-24T07:10:13.245Z,102640.31
2019-03-24T07:12:41.518Z,102638.19
2019-03-24T07:15:09.786Z,102638.19
2019-03-24T07:17:39.410Z,102639.23
2019-03-24T07:20:07.837Z,102639.23
2019-03-24T07:22:36.894Z,102639.50
2019-03-24T07:25:05.371Z,102633.42
2019-03-24T07:27:33.755Z,102633.42
2019-03-24T07:30:50.938Z,102645.31
2019-03-24T07:33:19.208Z,102639.93
2019-03-24T07:35:47.458Z,102639.93
2019-03-24T07:38:15.773Z,102641.44
2019-03-24T07:40:44.070Z,102628.05
2019-03-24T07:43:12.312Z,102622.82
2019-03-24T07:45:40.594Z,102623.37
2019-03-24T07:48:18.699Z,102623.37
2019-03-24T07:50:39.299Z,102627.86
2019-03-24T07:53:07.548Z,102629.63
2019-03-24T07:55:36.084Z,102628.47
2019-03-24T07:58:04.357Z,102613.74
2019-03-24T08:00:34.194Z,102613.74
2019-03-24T08:03:02.437Z,102611.52
2019-03-24T08:05:30.717Z,102615.00
2019-03-24T08:07:59.009Z,102607.62
2019-03-24T08:10:27.518Z,102606.77
2019-03-24T08:12:56.036Z,102595.66
2019-03-24T08:15:24.436Z,102599.55
2019-03-24T08:17:52.679Z,102588.83
2019-03-24T08:20:20.924Z,102576.35
2019-03-24T08:22:49.191Z,102570.40
2019-03-24T08:25:19.142Z,102574.95
2019-03-24T08:27:47.680Z,102570.88
2019-03-24T08:30:19.236Z,102571.61
2019-03-24T08:32:47.514Z,102584.70
2019-03-24T08:35:15.812Z,102585.20
2019-03-24T08:37:44.172Z,102583.98
2019-03-24T08:40:12.418Z,102581.95
2019-03-24T08:42:40.848Z,102589.67
2019-03-24T08:45:12.421Z,102593.04
2019-03-24T08:47:40.660Z,102593.42
2019-03-24T08:50:08.932Z,102595.69
2019-03-24T08:52:37.651Z,102601.20
2019-03-24T08:55:06.640Z,102604.57
2019-03-24T08:57:34.934Z,102610.59
2019-03-24T09:00:04.148Z,102617.17
2019-03-24T09:02:32.503Z,102616.70
2019-03-24T09:05:00.842Z,102609.36
2019-03-24T09:07:29.151Z,102602.38
2019-03-24T09:09:57.395Z,102598.03
2019-03-24T09:12:25.667Z,102577.25
2019-03-24T09:14:54.547Z,102573.80
2019-03-24T09:17:22.890Z,102563.57
2019-03-24T09:19:51.566Z,102563.09
2019-03-24T09:22:19.826Z,102567.23
2019-03-24T09:24:48.118Z,102566.20
2019-03-24T09:27:16.378Z,102561.66
2019-03-24T09:29:44.630Z,102556.00
2019-03-24T09:32:12.909Z,102565.52
2019-03-24T09:34:41.196Z,102558.78
2019-03-24T09:37:09.441Z,102555.05
2019-03-24T09:39:37.782Z,102547.51
2019-03-24T09:42:06.160Z,102538.06
2019-03-24T09:44:34.410Z,102540.22
2019-03-24T09:47:02.691Z,102544.08
2019-03-24T09:49:30.934Z,102544.42
2019-03-24T09:51:59.229Z,102547.75
2019-03-24T09:54:27.474Z,102544.83
2019-03-24T09:56:55.863Z,102549.25
2019-03-24T09:59:24.875Z,102551.19
2019-03-24T10:01:53.162Z,102552.37
2019-03-24T10:04:21.480Z,102553.53
2019-03-24T10:06:49.745Z,102552.77
2019-03-24T10:09:18.223Z,102549.05
2019-03-24T10:11:46.466Z,102548.59
2019-03-24T10:14:14.750Z,102549.47
2019-03-24T10:16:43.041Z,102547.37
2019-03-24T10:19:14.360Z,102546.02
2019-03-24T10:21:41.452Z,102546.25
2019-03-24T10:24:09.734Z,102548.48
2019-03-24T10:26:38.007Z,102547.19
2019-03-24T10:29:06.455Z,102551.38
2019-03-24T10:31:34.719Z,102554.84
2019-03-24T10:34:03.540Z,102543.46
2019-03-24T10:36:32.242Z,102552.38
2019-03-24T10:39:00.516Z,102550.48
2019-03-24T10:41:28.865Z,102550.27
2019-03-24T10:43:57.178Z,102548.16
2019-03-24T10:46:25.744Z,102540.30
2019-03-24T10:48:54.093Z,102540.23
2019-03-24T10:51:22.346Z,102532.39
2019-03-24T10:53:51.180Z,102525.61
2019-03-24T10:56:19.495Z,102517.98
2019-03-24T10:58:48.201Z,102514.24
2019-03-24T11:01:16.416Z,102514.52
2019-03-24T11:03:44.771Z,102515.67
2019-03-24T11:06:13.404Z,102505.66
2019-03-24T11:08:42.321Z,102506.77
2019-03-24T11:11:13.501Z,102515.97
2019-03-24T11:13:41.760Z,102517.60
2019-03-24T11:16:10.005Z,102520.59
2019-03-24T11:18:38.308Z,102517.07
2019-03-24T11:21:08.814Z,102514.87
2019-03-24T11:23:36.742Z,102516.49
2019-03-24T11:26:04.987Z,102510.00
2019-03-24T11:28:33.824Z,102508.91
2019-03-24T11:31:02.423Z,102511.12
2019-03-24T11:33:30.707Z,102511.95
2019-03-24T11:35:59.079Z,102504.08
2019-03-24T11:38:27.376Z,102498.11
2019-03-24T11:40:55.738Z,102497.56
2019-03-24T11:43:24.032Z,102491.02
2019-03-24T11:45:52.271Z,102492.41
2019-03-24T11:48:20.710Z,102479.34
2019-03-24T11:50:51.014Z,102484.48
2019-03-24T11:53:19.254Z,102483.05
2019-03-24T11:55:47.568Z,102479.64
2019-03-24T11:58:15.842Z,102468.63
2019-03-24T12:00:44.140Z,102469.24
2019-03-24T12:03:12.791Z,102469.58
2019-03-24T12:05:41.060Z,102465.82
2019-03-24T12:08:09.398Z,102462.98
2019-03-24T12:10:37.667Z,102450.86
2019-03-24T12:13:05.969Z,102447.16
2019-03-24T12:15:34.208Z,102445.84
2019-03-24T12:18:02.548Z,102444.05
2019-03-24T12:20:31.235Z,102441.23
2019-03-24T12:22:59.486Z,102433.89
2019-03-24T12:25:27.725Z,102419.72
2019-03-24T12:27:56.567Z,102422.11
2019-03-24T12:30:24.856Z,102413.31
2019-03-24T12:32:53.123Z,102410.69
2019-03-24T12:35:21.715Z,102412.02
2019-03-24T12:37:50.036Z,102400.38
2019-03-24T12:40:18.339Z,102399.11
2019-03-24T12:42:46.596Z,102396.27
2019-03-24T12:45:14.920Z,102394.15
2019-03-24T12:47:43.260Z,102382.70
2019-03-24T12:50:11.496Z,102381.27
2019-03-24T12:52:39.775Z,102382.30
2019-03-24T12:55:08.034Z,102372.78
2019-03-24T12:57:36.333Z,102374.06
2019-03-24T13:00:10.402Z,102361.89
2019-03-24T13:02:38.707Z,102367.62
2019-03-24T13:05:09.949Z,102370.45
2019-03-24T13:07:38.221Z,102365.17
2019-03-24T13:10:06.970Z,102361.66
2019-03-24T13:12:35.807Z,102357.80
2019-03-24T13:15:06.904Z,102352.55
2019-03-24T13:17:35.218Z,102352.22
2019-03-24T13:20:05.663Z,102347.56
2019-03-24T13:22:35.250Z,102342.89
2019-03-24T13:25:05.720Z,102339.02
2019-03-24T13:27:34.034Z,102333.36
2019-03-24T13:30:02.310Z,102333.37
2019-03-24T13:32:30.822Z,102337.95
2019-03-24T13:34:59.068Z,102333.30
2019-03-24T13:37:27.355Z,102326.11
2019-03-24T13:39:55.745Z,102320.36
2019-03-24T13:42:24.052Z,102319.36
2019-03-24T13:44:52.407Z,102316.12
2019-03-24T13:47:20.735Z,102318.97
2019-03-24T13:49:48.994Z,102309.45
2019-03-24T13:52:17.258Z,102300.23
2019-03-24T13:54:45.589Z,102306.49
2019-03-24T13:57:14.052Z,102305.86
2019-03-24T13:59:42.347Z,102295.84
2019-03-24T14:02:11.281Z,102300.11
2019-03-24T14:04:39.695Z,102293.17
2019-03-24T14:07:07.928Z,102297.77
2019-03-24T14:09:36.266Z,102291.78
2019-03-24T14:12:04.535Z,102300.24
2019-03-24T14:14:32.920Z,102292.91
2019-03-24T14:17:01.251Z,102293.77
2019-03-24T14:19:29.482Z,102289.59
2019-03-24T14:21:57.767Z,102283.94
2019-03-24T14:24:26.008Z,102277.46
2019-03-24T14:26:54.521Z,102271.14
2019-03-24T14:29:22.823Z,102276.64
2019-03-24T14:31:51.105Z,102268.38
2019-03-24T14:34:19.485Z,102258.59
2019-03-24T14:36:48.974Z,102259.88
2019-03-24T14:39:17.214Z,102257.50
2019-03-24T14:41:45.584Z,102247.63
2019-03-24T14:44:13.919Z,102251.94
2019-03-24T14:46:42.210Z,102252.96
2019-03-24T14:49:10.501Z,102253.44
2019-03-24T14:51:38.749Z,102252.36
2019-03-24T14:54:07.050Z,102243.92
2019-03-24T14:56:35.450Z,102235.75
2019-03-24T14:59:03.689Z,102236.87
2019-03-24T15:01:31.928Z,102231.58
2019-03-24T15:04:00.310Z,102228.39
2019-03-24T15:06:28.827Z,102219.66
2019-03-24T15:08:57.306Z,102210.56
2019-03-24T15:11:25.592Z,102209.30
2019-03-24T15:13:53.883Z,102211.84
2019-03-24T15:16:22.143Z,102207.39
2019-03-24T15:18:50.723Z,102203.44
2019-03-24T15:21:19.153Z,102205.13
2019-03-24T15:23:47.511Z,102204.14
2019-03-24T15:26:15.806Z,102198.31
2019-03-24T15:28:44.215Z,102194.98
2019-03-24T15:31:12.494Z,102194.70
2019-03-24T15:33:40.760Z,102186.19
2019-03-24T15:36:09.201Z,102181.70
2019-03-24T15:38:37.434Z,102192.88
2019-03-24T15:41:05.695Z,102188.03
2019-03-24T15:43:34.112Z,102187.25
2019-03-24T15:46:02.521Z,102189.48
2019-03-24T15:48:30.828Z,102186.30
2019-03-24T15:50:59.203Z,102178.52
2019-03-24T15:53:27.590Z,102179.36
2019-03-24T15:55:55.834Z,102176.67
2019-03-24T15:58:24.079Z,102181.55
2019-03-24T16:00:52.342Z,102180.73
2019-03-24T16:03:20.585Z,102173.41
2019-03-24T16:05:48.883Z,102175.84
2019-03-24T16:08:17.598Z,102176.64
2019-03-24T16:10:45.840Z,102182.11
2019-03-24T16:13:14.227Z,102176.73
2019-03-24T16:15:42.520Z,102178.91
2019-03-24T16:18:10.764Z,102169.14
2019-03-24T16:20:39.067Z,102174.34
2019-03-24T16:23:07.428Z,102176.78
2019-03-24T16:25:35.791Z,102174.08
2019-03-24T16:28:04.457Z,102171.36
2019-03-24T16:30:32.904Z,102165.94
2019-03-24T16:33:01.147Z,102163.23
2019-03-24T16:35:29.867Z,102165.94
2019-03-24T16:37:58.156Z,102164.36
2019-03-24T16:40:26.447Z,102161.38
2019-03-24T16:42:54.732Z,102165.44
2019-03-24T16:45:23.793Z,102163.29
2019-03-24T16:47:52.070Z,102159.23
2019-03-24T16:50:20.350Z,102158.96
2019-03-24T16:52:48.737Z,102156.28
2019-03-24T16:55:16.979Z,102156.53
2019-03-24T16:57:45.541Z,102160.88
2019-03-24T17:00:13.937Z,102158.72
2019-03-24T17:02:42.175Z,102152.22
2019-03-24T17:05:12.076Z,102146.25
2019-03-24T17:07:40.369Z,102135.69
2019-03-24T17:10:08.623Z,102131.37
2019-03-24T17:12:36.959Z,102131.90
2019-03-24T17:15:08.042Z,102136.52
2019-03-24T17:17:36.273Z,102125.67
2019-03-24T17:20:07.811Z,102120.00
2019-03-24T17:22:36.217Z,102120.27
2019-03-24T17:25:05.134Z,102120.27
2019-03-24T17:27:33.481Z,102114.53
2019-03-24T17:30:01.745Z,102123.48
2019-03-24T17:32:29.970Z,102116.15
2019-03-24T17:34:58.288Z,102109.65
2019-03-24T17:37:26.583Z,102103.42
2019-03-24T17:39:54.989Z,102106.91
2019-03-24T17:42:23.272Z,102107.72
2019-03-24T17:44:51.543Z,102098.79
2019-03-24T17:47:19.840Z,102089.02
2019-03-24T17:49:48.217Z,102091.98
2019-03-24T17:52:16.461Z,102085.75
2019-03-24T17:54:44.695Z,102084.11
2019-03-24T17:57:12.959Z,102090.05
2019-03-24T17:59:41.230Z,102087.59
2019-03-24T18:02:14.311Z,102091.63
2019-03-24T18:04:39.647Z,102086.76
2019-03-24T18:07:07.887Z,102091.06
2019-03-24T18:09:36.365Z,102091.06
2019-03-24T18:12:04.657Z,102091.84
2019-03-24T18:14:33.051Z,102093.45
2019-03-24T18:17:01.719Z,102090.45
2019-03-24T18:19:29.954Z,102093.41
2019-03-24T18:21:58.392Z,102094.76
2019-03-24T18:24:26.667Z,102087.47
2019-03-24T18:26:54.926Z,102085.28
2019-03-24T18:29:23.305Z,102092.02
2019-03-24T18:31:51.615Z,102086.88
2019-03-24T18:34:20.418Z,102082.02
2019-03-24T18:36:48.708Z,102083.65
2019-03-24T18:39:17.825Z,102084.17
2019-03-24T18:41:46.123Z,102079.27
2019-03-24T18:44:14.393Z,102079.54
2019-03-24T18:46:42.684Z,102081.69
2019-03-24T18:49:10.922Z,102088.15
2019-03-24T18:51:39.429Z,102084.31
2019-03-24T18:54:08.019Z,102083.23
2019-03-24T18:56:36.391Z,102076.72
2019-03-24T18:59:04.977Z,102074.78
2019-03-24T19:01:33.287Z,102074.50
2019-03-24T19:04:01.602Z,102070.13
2019-03-24T19:06:29.978Z,102073.59
2019-03-24T19:08:58.229Z,102070.05
2019-03-24T19:11:26.506Z,102069.73
2019-03-24T19:13:54.947Z,102069.70
2019-03-24T19:16:23.398Z,102063.98
2019-03-24T19:18:51.824Z,102063.70
2019-03-24T19:21:20.092Z,102058.02
2019-03-24T19:23:48.881Z,102054.47
2019-03-24T19:26:17.459Z,102059.06
2019-03-24T19:28:45.830Z,102057.91
2019-03-24T19:31:14.094Z,102053.02
2019-03-24T19:33:42.732Z,102060.25
2019-03-24T19:36:10.979Z,102062.70
2019-03-24T19:38:39.405Z,102059.95
2019-03-24T19:41:07.708Z,102055.73
2019-03-24T19:43:35.954Z,102055.95
2019-03-24T19:46:04.607Z,102051.09
2019-03-24T19:48:32.941Z,102047.52
2019-03-24T19:51:01.317Z,102040.95
2019-03-24T19:53:29.570Z,102044.48
2019-03-24T19:55:58.661Z,102036.37
2019-03-24T19:58:26.978Z,102038.23
2019-03-24T20:00:55.273Z,102032.50
2019-03-24T20:03:23.520Z,102026.80
2019-03-24T20:05:51.802Z,102022.72
2019-03-24T20:08:20.174Z,102013.77
2019-03-24T20:10:48.421Z,102009.41
2019-03-24T20:13:16.711Z,102008.81
2019-03-24T20:15:45.172Z,102004.69
2019-03-24T20:18:13.414Z,102003.50
2019-03-24T20:20:41.707Z,102003.47
2019-03-24T20:23:10.030Z,102002.91
2019-03-24T20:25:38.262Z,102000.69
2019-03-24T20:28:06.543Z,101997.09
2019-03-24T20:30:34.833Z,101990.05
2019-03-24T20:33:03.099Z,101988.59
2019-03-24T20:35:31.772Z,101987.22
2019-03-24T20:38:00.356Z,101984.48
2019-03-24T20:40:28.700Z,101985.77
2019-03-24T20:42:56.963Z,101982.75
2019-03-24T20:45:25.332Z,101983.45
2019-03-24T20:47:53.563Z,101973.41
2019-03-24T20:50:21.940Z,101973.59
2019-03-24T20:52:50.211Z,101963.30
2019-03-24T20:55:19.571Z,101955.45
2019-03-24T20:57:47.871Z,101949.45
2019-03-24T21:00:19.379Z,101937.52
2019-03-24T21:02:47.737Z,101937.52
2019-03-24T21:05:16.002Z,101941.01
2019-03-24T21:07:45.176Z,101934.13
2019-03-24T21:10:13.637Z,101930.61
2019-03-24T21:12:41.947Z,101917.59
2019-03-24T21:15:11.664Z,101917.59
2019-03-24T21:17:40.261Z,101911.81
2019-03-24T21:20:08.610Z,101910.42
2019-03-24T21:22:36.929Z,101902.50
2019-03-24T21:25:06.298Z,101902.50
2019-03-24T21:27:34.739Z,101890.14
2019-03-24T21:30:03.277Z,101890.14
2019-03-24T21:32:31.541Z,101895.01
2019-03-24T21:35:00.073Z,101880.44
2019-03-24T21:37:28.388Z,101880.39
2019-03-24T21:39:56.673Z,101867.47
2019-03-24T21:42:25.386Z,101859.40
2019-03-24T21:44:54.072Z,101861.50
2019-03-24T21:47:22.326Z,101843.41
2019-03-24T21:49:50.596Z,101843.41
2019-03-24T21:52:19.709Z,101842.94
2019-03-24T21:54:48.037Z,101842.94
2019-03-24T21:57:16.325Z,101843.91
2019-03-24T21:59:44.842Z,101830.98
2019-03-24T22:02:13.512Z,101830.98
2019-03-24T22:04:41.764Z,101820.52
2019-03-24T22:07:10.298Z,101820.95
2019-03-24T22:09:39.248Z,101825.23
2019-03-24T22:12:07.588Z,101810.70
2019-03-24T22:14:35.903Z,101800.72
2019-03-24T22:17:04.185Z,101801.30
2019-03-24T22:19:32.460Z,101789.42
2019-03-24T22:22:00.725Z,101778.42
2019-03-24T22:24:29.123Z,101778.42
2019-03-24T22:26:57.513Z,101769.63
2019-03-24T22:29:25.856Z,101758.34
2019-03-24T22:31:54.105Z,101754.85
2019-03-24T22:34:22.473Z,101754.85
2019-03-24T22:36:51.062Z,101741.34
2019-03-24T22:39:19.428Z,101740.80
2019-03-24T22:41:47.724Z,101729.76
2019-03-24T22:44:15.961Z,101729.76
2019-03-24T22:46:44.232Z,101711.97
2019-03-24T22:49:12.658Z,101711.97
2019-03-24T22:51:40.896Z,101717.09
2019-03-24T22:54:09.137Z,101703.03
2019-03-24T22:56:37.488Z,101702.78
2019-03-24T22:59:05.781Z,101699.27
2019-03-24T23:01:34.211Z,101699.27
2019-03-24T23:04:02.459Z,101699.55
2019-03-24T23:06:30.735Z,101689.89
2019-03-24T23:08:59.099Z,101683.78
2019-03-24T23:11:27.419Z,101677.39
2019-03-24T23:13:55.670Z,101677.39
2019-03-24T23:16:24.012Z,101669.97
2019-03-24T23:18:52.375Z,101669.97
2019-03-24T23:21:20.663Z,101655.98
2019-03-24T23:23:48.946Z,101650.13
2019-03-24T23:26:17.244Z,101632.17
2019-03-24T23:28:45.511Z,101632.17
2019-03-24T23:31:13.820Z,101614.10
2019-03-24T23:33:42.197Z,101614.10
2019-03-24T23:36:10.446Z,101605.84
2019-03-24T23:38:39.312Z,101605.84
2019-03-24T23:41:08.275Z,101587.84
2019-03-24T23:43:36.642Z,101572.83
2019-03-24T23:46:04.886Z,101572.83
2019-03-24T23:48:33.339Z,101574.92
2019-03-24T23:51:01.655Z,101555.84
2019-03-24T23:53:30.027Z,101549.70
2019-03-24T23:55:58.479Z,101549.70
2019-03-24T23:58:39.891Z,101548.06
